Time;durP1;ratioP1;P1;durP2;ratioP2;P2;SDS_P1;SDS_P2;PMS_P1;PMS_P2;Temp;Humidity;BMP_temperature;BMP_pressure;BME280_temperature;BME280_humidity;BME280_pressure;Samples;Min_cycle;Max_cycle;Signal;HPM_P1;HPM_P2
2021/12/10 00:01:54;;;;;;;5.38;1.75;;;;;;;;;;7383482;19;20017;-72
2021/12/10 00:04:23;;;;;;;7.00;1.55;;;;;;;;;;7384847;19;19999;-71
2021/12/10 00:06:55;;;;;;;4.80;1.73;;;;;;;;;;7386476;19;20042;-71
2021/12/10 00:09:27;;;;;;;2.40;1.42;;;;;;;;;;7385113;19;20010;-71
2021/12/10 00:11:58;;;;;;;3.80;1.65;;;;;;;;;;7384114;19;20018;-72
2021/12/10 00:14:27;;;;;;;4.95;2.03;;;;;;;;;;7386013;19;20018;-72
2021/12/10 00:16:53;;;;;;;2.97;1.48;;;;;;;;;;7384976;19;20383;-72
2021/12/10 00:21:49;;;;;;;4.90;1.73;;;;;;;;;;7379245;19;20014;-71
2021/12/10 00:24:16;;;;;;;2.05;1.50;;;;;;;;;;7381903;19;20122;-71
2021/12/10 00:26:42;;;;;;;3.00;1.55;;;;;;;;;;7385423;19;20357;-71
2021/12/10 00:29:08;;;;;;;3.13;1.55;;;;;;;;;;7378766;19;20002;-71
2021/12/10 00:34:21;;;;;;;3.35;1.70;;;;;;;;;;7384038;19;20021;-71
2021/12/10 00:36:49;;;;;;;3.63;1.20;;;;;;;;;;7385994;19;20030;-72
2021/12/10 00:39:22;;;;;;;3.28;1.45;;;;;;;;;;7379557;19;20002;-71
2021/12/10 00:41:48;;;;;;;3.55;1.38;;;;;;;;;;7383259;19;20449;-71
2021/12/10 00:44:13;;;;;;;7.95;1.60;;;;;;;;;;7383522;19;20014;-72
2021/12/10 00:46:39;;;;;;;1.80;1.20;;;;;;;;;;7384850;19;20430;-71
2021/12/10 00:49:05;;;;;;;5.90;1.52;;;;;;;;;;7384545;19;19999;-71
2021/12/10 00:51:31;;;;;;;4.53;1.23;;;;;;;;;;7383172;19;20062;-71
2021/12/10 00:53:57;;;;;;;4.85;1.35;;;;;;;;;;7380738;19;20025;-71
2021/12/10 00:56:23;;;;;;;3.00;1.05;;;;;;;;;;7381432;19;20018;-71
2021/12/10 00:58:48;;;;;;;3.13;1.20;;;;;;;;;;7381151;19;20003;-71
2021/12/10 01:01:18;;;;;;;2.55;1.10;;;;;;;;;;7383731;19;20015;-71
2021/12/10 01:03:51;;;;;;;2.70;1.10;;;;;;;;;;7384918;19;20062;-72
2021/12/10 01:06:18;;;;;;;2.53;1.20;;;;;;;;;;7385988;19;20429;-71
2021/12/10 01:08:46;;;;;;;4.57;1.55;;;;;;;;;;7385054;19;20001;-72
2021/12/10 01:11:21;;;;;;;1.80;1.33;;;;;;;;;;7383705;19;20006;-71
2021/12/10 01:13:50;;;;;;;2.47;1.10;;;;;;;;;;7385567;19;20010;-70
2021/12/10 01:27:08;;;;;;;1.75;0.50;;;;;;;;;;7385323;19;20034;-71
2021/12/10 01:29:38;;;;;;;3.00;0.80;;;;;;;;;;7383604;19;19999;-71
2021/12/10 01:32:06;;;;;;;6.03;1.00;;;;;;;;;;7384038;19;20444;-72
2021/12/10 01:34:32;;;;;;;0.68;0.65;;;;;;;;;;7380363;19;20022;-71
2021/12/10 01:36:58;;;;;;;2.63;0.90;;;;;;;;;;7380845;19;20006;-71
2021/12/10 01:39:28;;;;;;;3.95;1.05;;;;;;;;;;7380585;19;20429;-71
2021/12/10 01:42:00;;;;;;;1.77;0.68;;;;;;;;;;7381632;19;20027;-71
2021/12/10 01:44:31;;;;;;;1.77;0.60;;;;;;;;;;7382931;19;20015;-72
2021/12/10 01:47:04;;;;;;;3.30;0.80;;;;;;;;;;7383395;19;20080;-71
2021/12/10 01:49:30;;;;;;;1.50;0.90;;;;;;;;;;7383016;19;20014;-72
2021/12/10 01:51:58;;;;;;;1.75;0.70;;;;;;;;;;7379115;19;20002;-71
2021/12/10 01:54:35;;;;;;;1.40;0.88;;;;;;;;;;7381335;19;20010;-72
2021/12/10 01:57:02;;;;;;;1.50;0.68;;;;;;;;;;7382900;19;20010;-72
2021/12/10 01:59:29;;;;;;;3.67;0.85;;;;;;;;;;7381203;19;20025;-71
2021/12/10 02:02:00;;;;;;;4.78;0.90;;;;;;;;;;7382744;19;20013;-72
2021/12/10 02:04:29;;;;;;;3.78;0.77;;;;;;;;;;7380260;19;20009;-71
2021/12/10 02:06:55;;;;;;;0.85;0.68;;;;;;;;;;7380812;19;20031;-71
2021/12/10 02:09:20;;;;;;;0.82;0.57;;;;;;;;;;7380942;19;20079;-71
2021/12/10 02:11:46;;;;;;;3.10;0.50;;;;;;;;;;7380378;19;21485;-71
2021/12/10 02:14:12;;;;;;;1.50;0.50;;;;;;;;;;7381221;19;20018;-71
2021/12/10 02:16:38;;;;;;;2.75;0.77;;;;;;;;;;7380922;19;20023;-71
2021/12/10 02:19:06;;;;;;;1.33;0.60;;;;;;;;;;7379783;19;20484;-71
2021/12/10 02:21:34;;;;;;;2.55;0.68;;;;;;;;;;7380836;19;20666;-71
2021/12/10 02:24:00;;;;;;;1.90;0.70;;;;;;;;;;7382475;19;20014;-71
2021/12/10 02:26:29;;;;;;;1.17;0.47;;;;;;;;;;7381704;19;20382;-71
2021/12/10 02:28:55;;;;;;;1.05;0.47;;;;;;;;;;7381916;19;20040;-72
2021/12/10 02:31:20;;;;;;;3.17;0.77;;;;;;;;;;7380018;19;20579;-71
2021/12/10 02:33:46;;;;;;;1.30;0.45;;;;;;;;;;7382272;19;20106;-71
2021/12/10 02:36:12;;;;;;;2.70;0.68;;;;;;;;;;7381482;19;20493;-71
2021/12/10 02:38:40;;;;;;;0.73;0.55;;;;;;;;;;7379125;19;20039;-71
2021/12/10 02:41:06;;;;;;;2.10;0.60;;;;;;;;;;7378997;19;20066;-71
2021/12/10 02:43:32;;;;;;;0.52;0.40;;;;;;;;;;7380163;19;20040;-71
2021/12/10 02:45:58;;;;;;;4.22;0.57;;;;;;;;;;7382691;19;20244;-71
2021/12/10 02:48:24;;;;;;;0.80;0.43;;;;;;;;;;7378306;19;20038;-72
2021/12/10 02:50:50;;;;;;;3.85;0.90;;;;;;;;;;7380785;19;20078;-72
2021/12/10 02:53:22;;;;;;;1.70;0.73;;;;;;;;;;7379718;19;20799;-71
2021/12/10 02:55:48;;;;;;;1.45;0.68;;;;;;;;;;7382899;19;21169;-71
2021/12/10 02:58:14;;;;;;;2.83;0.73;;;;;;;;;;7379578;19;20158;-71
2021/12/10 03:00:56;;;;;;;2.10;0.90;;;;;;;;;;7380531;19;20011;-71
2021/12/10 03:03:22;;;;;;;2.15;0.47;;;;;;;;;;7384941;19;20003;-71
2021/12/10 03:05:48;;;;;;;2.05;0.50;;;;;;;;;;7387188;19;20014;-71
2021/12/10 03:08:14;;;;;;;2.28;0.68;;;;;;;;;;7385929;19;20007;-71
2021/12/10 03:10:39;;;;;;;2.35;0.60;;;;;;;;;;7386611;19;20017;-71
2021/12/10 03:13:06;;;;;;;1.25;0.55;;;;;;;;;;7387984;19;20006;-71
2021/12/10 03:15:32;;;;;;;1.48;0.50;;;;;;;;;;7386895;19;20069;-71
2021/12/10 03:18:00;;;;;;;1.80;0.57;;;;;;;;;;7386041;19;20049;-71
2021/12/10 03:20:29;;;;;;;1.42;0.45;;;;;;;;;;7388822;19;20040;-71
2021/12/10 03:22:55;;;;;;;1.90;0.63;;;;;;;;;;7383743;19;20074;-71
2021/12/10 03:25:21;;;;;;;1.35;0.70;;;;;;;;;;7383216;19;20002;-71
2021/12/10 03:27:47;;;;;;;1.33;0.40;;;;;;;;;;7381378;19;20003;-71
2021/12/10 03:30:18;;;;;;;0.80;0.32;;;;;;;;;;7385910;19;20018;-71
2021/12/10 03:32:43;;;;;;;1.63;0.43;;;;;;;;;;7386080;19;20140;-71
2021/12/10 03:35:16;;;;;;;1.85;0.50;;;;;;;;;;7384019;19;20059;-71
2021/12/10 03:37:42;;;;;;;2.38;0.68;;;;;;;;;;7383610;19;20066;-71
2021/12/10 03:40:11;;;;;;;1.77;0.60;;;;;;;;;;7384159;19;20007;-71
2021/12/10 03:42:37;;;;;;;2.45;0.50;;;;;;;;;;7387281;19;20031;-71
2021/12/10 03:45:04;;;;;;;2.42;0.35;;;;;;;;;;7387248;19;20480;-71
2021/12/10 03:47:29;;;;;;;0.63;0.20;;;;;;;;;;7387077;19;20070;-71
2021/12/10 03:49:55;;;;;;;1.13;0.60;;;;;;;;;;7388388;19;20440;-71
2021/12/10 03:52:20;;;;;;;0.40;0.40;;;;;;;;;;7385102;19;20010;-71
2021/12/10 03:54:47;;;;;;;2.17;0.68;;;;;;;;;;7386606;19;21668;-71
2021/12/10 03:57:12;;;;;;;0.25;0.20;;;;;;;;;;7387586;19;20003;-71
2021/12/10 03:59:38;;;;;;;1.38;0.25;;;;;;;;;;7386137;19;20040;-71
2021/12/10 04:02:06;;;;;;;0.77;0.43;;;;;;;;;;7381521;19;20014;-71
2021/12/10 04:04:42;;;;;;;0.63;0.30;;;;;;;;;;7386929;19;20023;-71
2021/12/10 04:07:22;;;;;;;0.77;0.28;;;;;;;;;;7386962;19;20006;-72
2021/12/10 04:09:48;;;;;;;1.65;0.50;;;;;;;;;;7383914;19;20006;-71
2021/12/10 04:12:14;;;;;;;0.82;0.32;;;;;;;;;;7383143;19;20010;-71
2021/12/10 04:14:40;;;;;;;1.10;0.28;;;;;;;;;;7381794;19;20437;-71
2021/12/10 04:17:06;;;;;;;1.77;0.38;;;;;;;;;;7384333;19;20302;-71
2021/12/10 04:19:36;;;;;;;1.15;0.32;;;;;;;;;;7385676;19;20058;-71
2021/12/10 04:22:04;;;;;;;1.30;0.28;;;;;;;;;;7380143;19;20018;-71
2021/12/10 04:24:32;;;;;;;1.27;0.45;;;;;;;;;;7383819;19;20062;-71
2021/12/10 04:26:59;;;;;;;0.32;0.20;;;;;;;;;;7383029;19;20011;-71
2021/12/10 04:29:25;;;;;;;0.20;0.13;;;;;;;;;;7374016;19;20441;-71
2021/12/10 04:31:53;;;;;;;0.85;0.30;;;;;;;;;;7382624;19;20026;-71
2021/12/10 04:34:21;;;;;;;0.60;0.45;;;;;;;;;;7383033;19;20006;-72
2021/12/10 04:36:48;;;;;;;1.05;0.13;;;;;;;;;;7383540;19;20006;-71
2021/12/10 04:39:13;;;;;;;1.08;0.77;;;;;;;;;;7381363;19;20019;-73
2021/12/10 04:41:39;;;;;;;1.75;1.00;;;;;;;;;;7380694;19;20007;-71
2021/12/10 04:44:05;;;;;;;1.73;1.00;;;;;;;;;;7385248;19;20018;-72
2021/12/10 04:46:31;;;;;;;1.52;0.60;;;;;;;;;;7383668;19;20007;-71
2021/12/10 04:49:00;;;;;;;1.23;0.50;;;;;;;;;;7382883;19;20053;-72
2021/12/10 04:51:29;;;;;;;3.63;0.60;;;;;;;;;;7381002;19;20013;-72
2021/12/10 04:53:56;;;;;;;0.93;0.20;;;;;;;;;;7383812;19;20127;-72
2021/12/10 04:56:22;;;;;;;1.77;0.45;;;;;;;;;;7382331;19;20015;-72
2021/12/10 04:58:48;;;;;;;2.60;0.35;;;;;;;;;;7383104;19;20006;-72
2021/12/10 05:01:14;;;;;;;0.20;0.20;;;;;;;;;;7383048;19;20484;-71
2021/12/10 05:03:40;;;;;;;0.77;0.32;;;;;;;;;;7384337;19;20002;-71
2021/12/10 05:06:06;;;;;;;0.95;0.28;;;;;;;;;;7382311;19;20025;-72
2021/12/10 05:08:35;;;;;;;1.10;0.30;;;;;;;;;;7381120;19;20959;-72
2021/12/10 05:11:02;;;;;;;0.45;0.28;;;;;;;;;;7382443;19;20119;-72
2021/12/10 05:13:28;;;;;;;0.25;0.20;;;;;;;;;;7382597;19;20003;-72
2021/12/10 05:15:58;;;;;;;0.90;0.47;;;;;;;;;;7381932;19;20476;-72
2021/12/10 05:18:26;;;;;;;0.40;0.40;;;;;;;;;;7382568;19;20006;-72
2021/12/10 05:20:52;;;;;;;1.08;0.30;;;;;;;;;;7383173;19;20014;-72
2021/12/10 05:23:19;;;;;;;1.08;0.40;;;;;;;;;;7377060;19;20065;-72
2021/12/10 05:25:44;;;;;;;0.88;0.38;;;;;;;;;;7380274;19;20346;-72
2021/12/10 05:28:11;;;;;;;1.38;0.63;;;;;;;;;;7381478;19;20013;-71
2021/12/10 05:30:37;;;;;;;10.65;2.45;;;;;;;;;;7377863;19;20635;-71
2021/12/10 05:33:04;;;;;;;3.53;1.48;;;;;;;;;;7367659;19;20051;-72
2021/12/10 05:35:31;;;;;;;2.38;0.80;;;;;;;;;;7379125;19;19998;-72
2021/12/10 05:37:56;;;;;;;2.65;0.80;;;;;;;;;;7379744;19;20006;-72
2021/12/10 05:40:23;;;;;;;0.63;0.52;;;;;;;;;;7381853;19;20025;-72
2021/12/10 05:42:49;;;;;;;0.88;0.52;;;;;;;;;;7381631;19;20013;-72
2021/12/10 05:45:20;;;;;;;1.67;0.98;;;;;;;;;;7383373;19;20018;-72
2021/12/10 05:47:47;;;;;;;0.95;0.68;;;;;;;;;;7379486;19;19999;-72
2021/12/10 05:50:15;;;;;;;0.52;0.45;;;;;;;;;;7380913;19;20011;-71
2021/12/10 05:52:41;;;;;;;0.60;0.55;;;;;;;;;;7376931;19;20006;-72
2021/12/10 05:55:07;;;;;;;0.25;0.25;;;;;;;;;;7380746;19;20042;-72
2021/12/10 05:57:32;;;;;;;2.22;0.40;;;;;;;;;;7381422;19;20002;-72
2021/12/10 05:59:58;;;;;;;2.50;0.70;;;;;;;;;;7377636;19;20175;-72
2021/12/10 06:02:23;;;;;;;2.53;0.50;;;;;;;;;;7375785;19;20014;-72
2021/12/10 06:04:49;;;;;;;0.90;0.47;;;;;;;;;;7378255;19;20002;-73
2021/12/10 06:07:14;;;;;;;1.05;0.40;;;;;;;;;;7377424;19;20006;-72
2021/12/10 06:09:40;;;;;;;2.60;0.60;;;;;;;;;;7375660;19;20011;-72
2021/12/10 06:12:05;;;;;;;0.70;0.40;;;;;;;;;;7378114;19;20021;-72
2021/12/10 06:14:31;;;;;;;1.27;0.40;;;;;;;;;;7379200;19;20102;-73
2021/12/10 06:16:56;;;;;;;1.10;0.50;;;;;;;;;;7374196;19;20055;-71
2021/12/10 06:19:23;;;;;;;1.55;0.60;;;;;;;;;;7377078;19;19995;-72
2021/12/10 06:21:49;;;;;;;0.82;0.38;;;;;;;;;;7373815;19;20014;-73
2021/12/10 06:24:14;;;;;;;3.00;0.60;;;;;;;;;;7379593;19;20831;-72
2021/12/10 06:26:40;;;;;;;0.22;0.22;;;;;;;;;;7376385;19;19999;-72
2021/12/10 06:29:06;;;;;;;0.63;0.30;;;;;;;;;;7376364;19;20009;-72
2021/12/10 06:31:31;;;;;;;0.63;0.30;;;;;;;;;;7375277;19;20453;-72
2021/12/10 06:33:58;;;;;;;0.90;0.32;;;;;;;;;;7380253;19;20105;-73
2021/12/10 06:36:25;;;;;;;1.65;0.50;;;;;;;;;;7376853;19;20003;-72
2021/12/10 06:38:52;;;;;;;0.57;0.50;;;;;;;;;;7383265;19;20006;-72
2021/12/10 06:41:18;;;;;;;0.25;0.25;;;;;;;;;;7383640;19;20011;-73
2021/12/10 06:43:43;;;;;;;2.08;0.45;;;;;;;;;;7387223;19;19998;-72
2021/12/10 06:46:09;;;;;;;0.93;0.35;;;;;;;;;;7387587;19;20022;-72
2021/12/10 06:48:36;;;;;;;0.30;0.30;;;;;;;;;;7384170;19;20017;-72
2021/12/10 06:51:09;;;;;;;2.20;0.45;;;;;;;;;;7384457;19;20010;-72
2021/12/10 06:53:35;;;;;;;0.88;0.55;;;;;;;;;;7387019;19;20739;-73
2021/12/10 06:56:00;;;;;;;0.68;0.50;;;;;;;;;;7383468;19;20027;-72
2021/12/10 06:58:28;;;;;;;1.48;0.40;;;;;;;;;;7381581;19;20010;-72
2021/12/10 07:01:01;;;;;;;0.77;0.40;;;;;;;;;;7386732;19;20305;-72
2021/12/10 07:03:28;;;;;;;2.05;0.60;;;;;;;;;;7384335;19;20369;-72
2021/12/10 07:05:55;;;;;;;0.77;0.50;;;;;;;;;;7383042;19;20047;-72
2021/12/10 07:08:22;;;;;;;0.50;0.38;;;;;;;;;;7384446;19;20023;-73
2021/12/10 07:10:48;;;;;;;1.60;0.45;;;;;;;;;;7384023;19;20006;-72
2021/12/10 07:13:15;;;;;;;1.02;0.60;;;;;;;;;;7383955;19;20806;-72
2021/12/10 07:15:43;;;;;;;0.68;0.52;;;;;;;;;;7386059;19;20003;-72
2021/12/10 07:18:09;;;;;;;0.65;0.57;;;;;;;;;;7382084;19;20011;-72
2021/12/10 07:20:36;;;;;;;0.75;0.55;;;;;;;;;;7381723;19;20006;-72
2021/12/10 07:23:01;;;;;;;1.05;0.70;;;;;;;;;;7384167;19;20003;-72
2021/12/10 07:25:27;;;;;;;0.73;0.50;;;;;;;;;;7382994;19;19998;-72
2021/12/10 07:27:53;;;;;;;0.60;0.50;;;;;;;;;;7390061;19;20040;-71
2021/12/10 07:30:22;;;;;;;0.55;0.43;;;;;;;;;;7387885;19;20023;-72
2021/12/10 07:32:47;;;;;;;1.42;0.60;;;;;;;;;;7384386;19;20083;-73
2021/12/10 07:35:14;;;;;;;0.98;0.65;;;;;;;;;;7382984;19;20071;-72
2021/12/10 07:37:40;;;;;;;2.03;0.98;;;;;;;;;;7384053;19;20002;-72
2021/12/10 07:40:09;;;;;;;1.15;0.60;;;;;;;;;;7383808;19;20002;-71
2021/12/10 07:42:34;;;;;;;2.33;0.85;;;;;;;;;;7378671;19;20003;-72
2021/12/10 07:45:00;;;;;;;1.63;0.80;;;;;;;;;;7383307;19;20423;-73
2021/12/10 07:47:33;;;;;;;0.90;0.80;;;;;;;;;;7382254;19;20010;-71
2021/12/10 07:49:58;;;;;;;1.20;0.70;;;;;;;;;;7383423;19;20015;-73
2021/12/10 07:52:27;;;;;;;2.35;0.80;;;;;;;;;;7378414;19;20464;-72
2021/12/10 07:54:52;;;;;;;2.15;0.98;;;;;;;;;;7383406;19;19994;-72
2021/12/10 07:57:20;;;;;;;2.88;1.00;;;;;;;;;;7380212;19;20006;-72
2021/12/10 07:59:46;;;;;;;2.97;1.30;;;;;;;;;;7381167;19;20002;-72
2021/12/10 08:02:12;;;;;;;2.00;1.20;;;;;;;;;;7381431;19;20572;-72
2021/12/10 08:04:37;;;;;;;1.50;0.90;;;;;;;;;;7383297;19;20026;-72
2021/12/10 08:07:04;;;;;;;1.50;0.80;;;;;;;;;;7382101;19;20344;-73
2021/12/10 08:09:30;;;;;;;3.13;1.20;;;;;;;;;;7384011;19;20007;-72
2021/12/10 08:11:55;;;;;;;1.42;0.82;;;;;;;;;;7380670;19;20082;-73
2021/12/10 08:14:20;;;;;;;3.05;1.13;;;;;;;;;;7383997;19;20066;-73
2021/12/10 08:16:46;;;;;;;1.90;1.10;;;;;;;;;;7379795;19;20002;-72
2021/12/10 08:19:12;;;;;;;2.33;1.38;;;;;;;;;;7383951;19;20020;-73
2021/12/10 08:21:38;;;;;;;4.18;1.50;;;;;;;;;;7382097;19;20020;-72
2021/12/10 08:24:04;;;;;;;2.17;1.15;;;;;;;;;;7385566;19;20091;-72
2021/12/10 08:26:30;;;;;;;2.75;1.30;;;;;;;;;;7383089;19;20014;-73
2021/12/10 08:28:55;;;;;;;3.05;1.25;;;;;;;;;;7382185;19;20345;-72
2021/12/10 08:31:21;;;;;;;2.72;1.42;;;;;;;;;;7381435;19;20018;-72
2021/12/10 08:33:48;;;;;;;2.28;1.35;;;;;;;;;;7383234;19;20525;-72
2021/12/10 08:36:16;;;;;;;2.58;1.58;;;;;;;;;;7381608;19;20006;-72
2021/12/10 08:38:42;;;;;;;2.80;1.45;;;;;;;;;;7381974;19;20010;-72
2021/12/10 08:41:11;;;;;;;3.67;1.67;;;;;;;;;;7379774;19;20317;-72
2021/12/10 08:43:37;;;;;;;4.40;1.77;;;;;;;;;;7380408;19;20350;-72
2021/12/10 08:46:04;;;;;;;4.20;1.92;;;;;;;;;;7380090;19;20014;-73
2021/12/10 08:48:30;;;;;;;2.72;1.95;;;;;;;;;;7379929;19;20010;-71
2021/12/10 08:51:00;;;;;;;3.20;1.30;;;;;;;;;;7380729;19;20472;-71
2021/12/10 08:53:25;;;;;;;2.30;1.73;;;;;;;;;;7378978;19;20034;-71
2021/12/10 08:55:54;;;;;;;3.15;1.63;;;;;;;;;;7379972;19;20019;-72
2021/12/10 08:58:20;;;;;;;2.85;1.60;;;;;;;;;;7378354;19;20031;-71
2021/12/10 09:01:08;;;;;;;2.45;1.42;;;;;;;;;;7379632;19;20018;-71
2021/12/10 09:03:34;;;;;;;3.20;1.70;;;;;;;;;;7378016;19;20010;-71
2021/12/10 09:06:02;;;;;;;3.53;1.70;;;;;;;;;;7379752;19;20031;-71
2021/12/10 09:08:28;;;;;;;3.20;2.25;;;;;;;;;;7379289;19;20035;-71
2021/12/10 09:10:53;;;;;;;3.92;2.15;;;;;;;;;;7377699;19;20023;-71
2021/12/10 09:13:20;;;;;;;4.68;1.95;;;;;;;;;;7380823;19;20010;-71
2021/12/10 09:15:54;;;;;;;2.97;1.75;;;;;;;;;;7379877;19;20014;-71
2021/12/10 09:18:19;;;;;;;3.05;1.63;;;;;;;;;;7378429;19;20003;-71
2021/12/10 09:20:48;;;;;;;4.32;2.15;;;;;;;;;;7380553;19;20015;-71
2021/12/10 09:23:17;;;;;;;3.50;1.85;;;;;;;;;;7379219;19;20108;-72
2021/12/10 09:25:43;;;;;;;3.38;1.80;;;;;;;;;;7378315;19;20025;-71
2021/12/10 09:28:09;;;;;;;3.58;1.85;;;;;;;;;;7381454;19;20583;-71
2021/12/10 09:30:39;;;;;;;2.22;1.70;;;;;;;;;;7379789;19;20040;-71
2021/12/10 09:33:04;;;;;;;4.35;2.60;;;;;;;;;;7378323;19;20466;-71
2021/12/10 09:35:32;;;;;;;3.78;1.92;;;;;;;;;;7372553;19;20011;-72
2021/12/10 09:37:57;;;;;;;3.03;1.80;;;;;;;;;;7376130;19;19998;-71
2021/12/10 09:40:27;;;;;;;3.88;2.00;;;;;;;;;;7379647;19;20379;-72
2021/12/10 09:42:55;;;;;;;3.15;1.65;;;;;;;;;;7380161;19;20122;-71
2021/12/10 09:45:24;;;;;;;3.15;1.85;;;;;;;;;;7380949;19;20007;-71
2021/12/10 09:47:51;;;;;;;2.78;1.70;;;;;;;;;;7380245;19;20013;-71
2021/12/10 09:50:18;;;;;;;2.63;1.80;;;;;;;;;;7380443;19;20037;-71
2021/12/10 09:52:44;;;;;;;4.28;1.83;;;;;;;;;;7380310;19;20383;-71
2021/12/10 09:55:13;;;;;;;3.35;2.10;;;;;;;;;;7377486;19;20569;-71
2021/12/10 09:57:39;;;;;;;2.65;1.60;;;;;;;;;;7378981;19;20010;-71
2021/12/10 10:00:16;;;;;;;3.53;2.05;;;;;;;;;;7376084;19;20103;-72
2021/12/10 10:02:42;;;;;;;2.35;1.38;;;;;;;;;;7374317;19;20009;-71
2021/12/10 10:05:09;;;;;;;3.38;1.80;;;;;;;;;;7380170;19;21133;-71
2021/12/10 10:07:35;;;;;;;2.78;1.58;;;;;;;;;;7378821;19;20855;-71
2021/12/10 10:10:08;;;;;;;3.00;1.67;;;;;;;;;;7377146;19;20015;-71
2021/12/10 10:12:37;;;;;;;3.95;1.50;;;;;;;;;;7379303;19;20026;-72
2021/12/10 10:15:09;;;;;;;1.67;1.25;;;;;;;;;;7386213;19;20006;-71
2021/12/10 10:17:35;;;;;;;4.35;1.95;;;;;;;;;;7384869;19;20027;-72
2021/12/10 10:20:01;;;;;;;2.17;1.42;;;;;;;;;;7386205;19;19999;-71
2021/12/10 10:22:29;;;;;;;2.45;1.55;;;;;;;;;;7378607;19;20704;-72
2021/12/10 10:24:56;;;;;;;3.00;1.75;;;;;;;;;;7379830;19;20192;-71
2021/12/10 10:27:28;;;;;;;2.60;1.52;;;;;;;;;;7381778;19;20010;-71
2021/12/10 10:30:12;;;;;;;2.65;1.60;;;;;;;;;;7382140;19;20014;-72
2021/12/10 10:32:42;;;;;;;1.73;1.27;;;;;;;;;;7382123;19;20002;-72
2021/12/10 10:35:15;;;;;;;2.80;1.65;;;;;;;;;;7379787;19;20014;-72
2021/12/10 10:37:41;;;;;;;1.08;1.00;;;;;;;;;;7380264;19;20006;-72
2021/12/10 10:40:10;;;;;;;2.22;1.05;;;;;;;;;;7377307;19;19990;-72
2021/12/10 10:42:35;;;;;;;3.45;1.30;;;;;;;;;;7378761;19;20011;-72
2021/12/10 10:45:06;;;;;;;2.33;1.60;;;;;;;;;;7379964;19;20009;-71
2021/12/10 10:47:31;;;;;;;1.75;1.23;;;;;;;;;;7377478;19;20026;-72
2021/12/10 10:50:11;;;;;;;2.25;1.50;;;;;;;;;;7375688;19;20078;-71
2021/12/10 10:52:39;;;;;;;2.38;1.52;;;;;;;;;;7377651;19;20440;-72
2021/12/10 10:55:11;;;;;;;4.22;2.55;;;;;;;;;;7380561;19;20493;-72
2021/12/10 10:57:39;;;;;;;3.65;1.40;;;;;;;;;;7380288;19;20402;-71
2021/12/10 11:00:19;;;;;;;2.20;1.23;;;;;;;;;;7381011;19;19999;-72
2021/12/10 11:02:52;;;;;;;1.42;1.20;;;;;;;;;;7376029;19;20002;-72
2021/12/10 11:05:21;;;;;;;1.08;0.98;;;;;;;;;;7380607;19;20017;-72
2021/12/10 11:07:51;;;;;;;2.35;1.40;;;;;;;;;;7378732;19;20017;-71
2021/12/10 11:10:44;;;;;;;2.25;1.40;;;;;;;;;;7375890;19;20017;-71
2021/12/10 11:13:21;;;;;;;1.45;1.30;;;;;;;;;;7376849;19;20003;-71
2021/12/10 11:16:11;;;;;;;2.67;1.58;;;;;;;;;;7376686;19;20526;-72
2021/12/10 11:19:02;;;;;;;2.20;1.50;;;;;;;;;;7379128;19;20002;-72
2021/12/10 11:21:43;;;;;;;2.47;1.48;;;;;;;;;;7374156;19;20018;-71
2021/12/10 11:24:20;;;;;;;2.15;1.30;;;;;;;;;;7378953;19;20492;-72
2021/12/10 11:27:04;;;;;;;2.65;1.42;;;;;;;;;;7376582;19;20009;-71
2021/12/10 11:29:32;;;;;;;2.83;1.60;;;;;;;;;;7379391;19;20101;-72
2021/12/10 11:32:00;;;;;;;2.22;1.38;;;;;;;;;;7376603;19;20021;-71
2021/12/10 11:35:00;;;;;;;3.28;1.48;;;;;;;;;;7372387;19;20007;-72
2021/12/10 11:37:57;;;;;;;1.80;1.27;;;;;;;;;;7368709;19;20002;-72
2021/12/10 11:40:27;;;;;;;;;;;;;;;;;;7376762;19;20122;-71
2021/12/10 11:42:58;;;;;;;1.48;1.05;;;;;;;;;;7378456;19;19926;-72
2021/12/10 11:46:03;;;;;;;3.63;1.50;;;;;;;;;;7380355;19;20018;-72
2021/12/10 11:48:31;;;;;;;1.95;1.42;;;;;;;;;;7373083;19;20013;-71
2021/12/10 11:51:12;;;;;;;2.63;1.50;;;;;;;;;;7376251;19;20035;-71
2021/12/10 11:53:55;;;;;;;2.17;1.27;;;;;;;;;;7378595;19;20006;-71
2021/12/10 11:56:25;;;;;;;4.25;1.30;;;;;;;;;;7378495;19;20078;-73
2021/12/10 11:59:13;;;;;;;2.15;1.58;;;;;;;;;;7380404;19;20373;-71
2021/12/10 12:02:17;;;;;;;3.33;1.05;;;;;;;;;;7378547;19;20125;-71
2021/12/10 12:04:49;;;;;;;3.50;1.30;;;;;;;;;;7375589;19;20010;-71
2021/12/10 12:07:22;;;;;;;5.97;3.30;;;;;;;;;;7382546;19;20013;-71
2021/12/10 12:09:52;;;;;;;3.72;1.70;;;;;;;;;;7373621;19;20010;-71
2021/12/10 12:12:22;;;;;;;1.95;1.33;;;;;;;;;;7383495;19;20003;-71
2021/12/10 12:14:53;;;;;;;2.85;1.10;;;;;;;;;;7383517;19;20013;-71
2021/12/10 12:17:33;;;;;;;2.92;1.25;;;;;;;;;;7380965;19;20034;-71
2021/12/10 12:19:59;;;;;;;1.42;1.25;;;;;;;;;;7382600;19;20006;-71
2021/12/10 12:25:26;;;;;;;2.33;1.60;;;;;;;;;;7384877;19;20038;-71
2021/12/10 12:28:07;;;;;;;1.60;1.20;;;;;;;;;;7382060;19;20026;-70
2021/12/10 12:30:47;;;;;;;1.67;1.20;;;;;;;;;;7385039;19;20450;-69
2021/12/10 12:33:13;;;;;;;2.80;1.52;;;;;;;;;;7383267;19;20018;-71
2021/12/10 12:35:39;;;;;;;14.38;5.35;;;;;;;;;;7380604;19;20344;-71
2021/12/10 12:38:14;;;;;;;6.88;3.47;;;;;;;;;;7382352;19;20488;-71
2021/12/10 12:40:40;;;;;;;;;;;;;;;;;;7386776;19;20010;-71
2021/12/10 12:43:06;;;;;;;5.60;2.72;;;;;;;;;;7383844;19;20022;-71
2021/12/10 12:45:34;;;;;;;3.95;2.10;;;;;;;;;;7384291;19;20030;-71
2021/12/10 12:48:04;;;;;;;3.75;1.58;;;;;;;;;;7382337;19;20002;-72
2021/12/10 12:50:31;;;;;;;3.50;1.50;;;;;;;;;;7384495;19;20025;-73
2021/12/10 12:53:12;;;;;;;1.98;1.35;;;;;;;;;;7379906;19;20062;-73
2021/12/10 12:55:57;;;;;;;2.40;1.40;;;;;;;;;;7379180;19;20362;-73
2021/12/10 12:58:35;;;;;;;1.67;1.40;;;;;;;;;;7378198;19;20542;-73
2021/12/10 13:01:03;;;;;;;5.35;2.10;;;;;;;;;;7379586;19;20476;-73
2021/12/10 13:03:40;;;;;;;3.97;2.40;;;;;;;;;;7377951;19;20010;-73
2021/12/10 13:06:20;;;;;;;4.07;1.90;;;;;;;;;;7379527;19;20025;-73
2021/12/10 13:09:01;;;;;;;3.22;1.70;;;;;;;;;;7378966;19;20035;-73
2021/12/10 13:11:46;;;;;;;1.75;1.15;;;;;;;;;;7378673;19;20005;-73
2021/12/10 13:14:15;;;;;;;3.03;1.70;;;;;;;;;;7378386;19;20011;-73
2021/12/10 13:16:49;;;;;;;2.88;1.33;;;;;;;;;;7376905;19;20006;-73
2021/12/10 13:19:18;;;;;;;1.73;1.08;;;;;;;;;;7376183;19;20003;-73
2021/12/10 13:21:54;;;;;;;1.77;1.00;;;;;;;;;;7373343;19;20503;-73
2021/12/10 13:24:19;;;;;;;2.08;1.20;;;;;;;;;;7379828;19;20062;-73
2021/12/10 13:26:45;;;;;;;2.60;1.55;;;;;;;;;;7376716;19;20462;-73
2021/12/10 13:29:11;;;;;;;2.17;1.27;;;;;;;;;;7375594;19;20010;-73
2021/12/10 13:31:39;;;;;;;3.90;1.20;;;;;;;;;;7375957;19;20433;-73
2021/12/10 13:34:06;;;;;;;1.85;1.20;;;;;;;;;;7375203;19;20483;-73
2021/12/10 13:36:32;;;;;;;3.08;1.33;;;;;;;;;;7375958;19;20032;-73
2021/12/10 13:38:59;;;;;;;1.48;1.23;;;;;;;;;;7373874;19;20002;-73
2021/12/10 13:41:28;;;;;;;1.92;1.02;;;;;;;;;;7373375;19;20009;-73
2021/12/10 13:44:04;;;;;;;2.25;1.30;;;;;;;;;;7377329;19;20042;-73
2021/12/10 13:46:34;;;;;;;3.65;1.63;;;;;;;;;;7376395;19;20003;-73
2021/12/10 13:49:03;;;;;;;2.17;1.13;;;;;;;;;;7376478;19;20022;-73
2021/12/10 13:51:34;;;;;;;3.03;1.38;;;;;;;;;;7371193;19;20826;-73
2021/12/10 13:54:10;;;;;;;3.05;1.20;;;;;;;;;;7376574;19;20014;-73
2021/12/10 13:56:38;;;;;;;2.45;1.20;;;;;;;;;;7375709;19;20002;-73
2021/12/10 13:59:08;;;;;;;2.03;1.33;;;;;;;;;;7376394;19;20006;-73
2021/12/10 14:01:45;;;;;;;5.65;2.08;;;;;;;;;;7371967;19;20006;-73
2021/12/10 14:04:14;;;;;;;4.15;2.70;;;;;;;;;;7376963;19;20002;-73
2021/12/10 14:06:47;;;;;;;8.13;5.50;;;;;;;;;;7374558;19;20029;-73
2021/12/10 14:09:59;;;;;;;6.13;3.33;;;;;;;;;;7375895;19;20018;-73
2021/12/10 14:12:37;;;;;;;4.05;2.20;;;;;;;;;;7375270;19;20696;-73
2021/12/10 14:15:05;;;;;;;4.38;2.78;;;;;;;;;;7373857;19;20310;-73
2021/12/10 14:17:33;;;;;;;8.00;3.35;;;;;;;;;;7373912;19;20113;-73
2021/12/10 14:20:14;;;;;;;3.15;2.00;;;;;;;;;;7371578;19;20114;-73
2021/12/10 14:22:57;;;;;;;3.63;1.90;;;;;;;;;;7370887;19;20007;-73
2021/12/10 14:25:29;;;;;;;3.85;2.50;;;;;;;;;;7375671;19;20006;-73
2021/12/10 14:28:14;;;;;;;4.68;1.92;;;;;;;;;;7373415;19;20077;-73
2021/12/10 14:30:44;;;;;;;3.40;1.98;;;;;;;;;;7372780;19;20484;-73
2021/12/10 14:33:13;;;;;;;4.30;1.88;;;;;;;;;;7375683;19;20006;-73
2021/12/10 14:35:39;;;;;;;6.22;2.50;;;;;;;;;;7373550;19;20776;-73
2021/12/10 14:38:06;;;;;;;10.10;4.57;;;;;;;;;;7373112;19;20018;-73
2021/12/10 14:40:39;;;;;;;8.77;4.18;;;;;;;;;;7374370;19;20030;-73
2021/12/10 14:43:11;;;;;;;6.22;2.80;;;;;;;;;;7375331;19;20010;-73
2021/12/10 14:45:54;;;;;;;3.47;2.22;;;;;;;;;;7372997;19;20107;-73
2021/12/10 14:48:20;;;;;;;6.75;3.08;;;;;;;;;;7373731;19;20003;-73
2021/12/10 14:50:57;;;;;;;12.27;3.08;;;;;;;;;;7374937;19;20370;-73
2021/12/10 14:53:32;;;;;;;4.28;2.72;;;;;;;;;;7373318;19;20329;-73
2021/12/10 14:56:33;;;;;;;3.08;2.17;;;;;;;;;;7372677;19;20003;-73
2021/12/10 14:59:24;;;;;;;5.45;2.45;;;;;;;;;;7376714;19;20031;-72
2021/12/10 15:02:09;;;;;;;4.75;2.60;;;;;;;;;;7380343;19;20736;-73
2021/12/10 15:04:40;;;;;;;6.18;2.35;;;;;;;;;;7379266;19;20013;-73
2021/12/10 15:07:14;;;;;;;3.95;2.15;;;;;;;;;;7382200;19;20429;-73
2021/12/10 15:10:05;;;;;;;5.05;2.75;;;;;;;;;;7379119;19;20022;-73
2021/12/10 15:12:58;;;;;;;2.97;1.90;;;;;;;;;;7379656;19;20014;-73
2021/12/10 15:15:47;;;;;;;5.10;2.03;;;;;;;;;;7383202;19;20014;-73
2021/12/10 15:18:44;;;;;;;5.90;1.80;;;;;;;;;;7380335;19;19995;-73